Time;durP1;ratioP1;P1;durP2;ratioP2;P2;SDS_P1;SDS_P2;PMS_P1;PMS_P2;Temp;Humidity;BMP_temperature;BMP_pressure;BME280_temperature;BME280_humidity;BME280_pressure;Samples;Min_cycle;Max_cycle;Signal;HPM_P1;HPM_P2
2021/04/20 00:01:14;;;;;;;12.80;5.55;;;;;;;7.08;56.46;101588.53;4991914;28;20391;-82
2021/04/20 00:03:39;;;;;;;9.52;5.47;;;;;;;7.05;56.16;101583.38;4991535;28;20030;-82
2021/04/20 00:06:09;;;;;;;8.27;5.13;;;;;;;7.00;57.49;101587.28;4995441;28;20026;-82
2021/04/20 00:08:35;;;;;;;8.18;5.65;;;;;;;6.95;57.17;101582.22;4994860;28;20065;-82
2021/04/20 00:11:00;;;;;;;10.20;5.65;;;;;;;6.92;57.49;101582.41;4995845;28;20034;-82
2021/04/20 00:13:27;;;;;;;7.95;5.40;;;;;;;6.89;57.27;101578.09;4994964;28;20085;-82
2021/04/20 00:15:52;;;;;;;13.10;5.78;;;;;;;6.88;56.48;101580.84;4992059;28;20030;-82
2021/04/20 00:18:17;;;;;;;12.30;5.40;;;;;;;6.80;57.41;101577.78;4991905;28;20117;-82
2021/04/20 00:20:42;;;;;;;13.80;5.60;;;;;;;6.74;57.42;101573.66;4991943;28;20042;-82
2021/04/20 00:23:08;;;;;;;8.40;5.07;;;;;;;6.64;57.92;101573.34;4991206;28;20117;-82
2021/04/20 00:25:34;;;;;;;9.82;4.93;;;;;;;6.58;58.27;101567.47;4991150;28;20037;-82
2021/04/20 00:28:00;;;;;;;11.23;5.50;;;;;;;6.56;59.37;101561.38;4990193;28;20125;-84
2021/04/20 00:30:26;;;;;;;10.52;5.47;;;;;;;6.50;59.77;101567.06;4993285;28;20113;-83
2021/04/20 00:32:52;;;;;;;12.88;5.88;;;;;;;6.49;60.71;101560.88;4995391;28;20120;-83
2021/04/20 00:35:17;;;;;;;10.27;5.82;;;;;;;6.41;60.34;101561.31;4993014;28;20437;-82
2021/04/20 00:37:43;;;;;;;11.55;6.50;;;;;;;6.35;60.57;101550.97;4994399;28;20034;-83
2021/04/20 00:40:12;;;;;;;11.65;6.10;;;;;;;6.30;60.95;101555.72;4991110;28;20037;-82
2021/04/20 00:42:51;;;;;;;15.70;6.47;;;;;;;6.28;61.26;101552.28;4989778;28;20165;-83
2021/04/20 00:45:20;;;;;;;14.48;6.03;;;;;;;6.22;61.40;101549.97;4991062;28;20034;-82
2021/04/20 00:47:46;;;;;;;15.10;5.93;;;;;;;6.15;62.04;101540.56;4990948;28;20457;-82
2021/04/20 00:50:14;;;;;;;12.93;6.32;;;;;;;6.10;61.97;101546.19;4990820;28;20056;-83
2021/04/20 00:52:39;;;;;;;12.55;6.68;;;;;;;6.10;61.36;101543.50;4991702;28;20368;-83
2021/04/20 00:55:06;;;;;;;14.68;6.63;;;;;;;6.01;62.50;101545.84;4998181;28;20045;-83
2021/04/20 00:57:32;;;;;;;17.77;6.45;;;;;;;6.04;61.87;101546.53;4995698;28;20513;-83
2021/04/20 00:59:58;;;;;;;16.77;6.82;;;;;;;6.03;62.36;101543.94;4995750;28;20042;-82
2021/04/20 01:02:23;;;;;;;11.95;6.88;;;;;;;6.01;62.73;101537.84;4993590;28;20522;-83
2021/04/20 01:04:50;;;;;;;14.57;7.20;;;;;;;5.94;63.05;101543.53;4993917;28;20454;-83
2021/04/20 01:07:16;;;;;;;14.73;7.55;;;;;;;5.91;62.70;101543.66;4991479;28;20034;-82
2021/04/20 01:09:43;;;;;;;13.07;6.45;;;;;;;5.91;62.97;101543.66;4992128;28;20042;-82
2021/04/20 01:12:09;;;;;;;15.60;7.50;;;;;;;5.88;63.63;101538.50;4992502;28;20133;-83
2021/04/20 01:14:35;;;;;;;14.45;6.88;;;;;;;5.84;63.30;101536.91;4992587;28;20481;-83
2021/04/20 01:17:01;;;;;;;16.60;7.32;;;;;;;5.85;63.66;101546.69;4995283;28;20065;-83
2021/04/20 01:19:29;;;;;;;11.98;7.68;;;;;;;5.87;64.23;101541.22;4995105;28;20076;-83
2021/04/20 01:21:56;;;;;;;14.63;6.53;;;;;;;5.86;64.61;101535.03;4993389;28;20084;-83
2021/04/20 01:24:27;;;;;;;14.43;7.43;;;;;;;5.86;64.07;101537.72;4989346;28;20108;-83
2021/04/20 01:26:53;;;;;;;13.38;6.90;;;;;;;5.76;64.92;101533.84;4990555;28;20105;-83
2021/04/20 01:29:21;;;;;;;14.30;6.88;;;;;;;5.69;64.72;101529.78;4989527;28;20038;-83
2021/04/20 01:31:46;;;;;;;10.85;7.07;;;;;;;5.65;64.77;101538.91;4989154;28;20113;-83
2021/04/20 01:34:13;;;;;;;11.52;7.07;;;;;;;5.63;65.84;101528.31;4990101;28;20034;-82
2021/04/20 01:36:39;;;;;;;10.02;6.45;;;;;;;5.64;66.10;101538.03;4992877;28;20026;-82
2021/04/20 01:39:09;;;;;;;11.02;6.75;;;;;;;5.64;65.91;101526.53;4993313;28;20450;-82
2021/04/20 01:41:35;;;;;;;11.85;7.03;;;;;;;5.55;66.15;101532.34;4993304;28;20030;-82
2021/04/20 01:44:02;;;;;;;12.68;7.35;;;;;;;5.52;66.85;101525.38;4997156;28;20030;-82
2021/04/20 01:46:28;;;;;;;13.05;6.70;;;;;;;5.52;67.32;101533.38;4993523;28;20084;-82
2021/04/20 01:48:54;;;;;;;10.68;7.30;;;;;;;5.49;67.87;101526.41;4993143;28;20046;-82
2021/04/20 01:51:21;;;;;;;11.00;6.78;;;;;;;5.46;67.27;101531.91;4994609;28;20045;-82
2021/04/20 01:53:48;;;;;;;13.60;7.10;;;;;;;5.46;67.18;101531.06;4997015;28;20038;-83
2021/04/20 01:56:13;;;;;;;12.13;7.40;;;;;;;5.38;67.75;101527.94;4996665;28;20034;-82
2021/04/20 01:58:41;;;;;;;10.07;6.85;;;;;;;5.36;67.91;101525.34;4996155;28;20398;-82
2021/04/20 02:01:09;;;;;;;11.18;6.93;;;;;;;5.33;67.86;101528.19;4993716;28;20470;-82
2021/04/20 02:03:36;;;;;;;12.13;7.95;;;;;;;5.24;68.30;101521.53;4994551;28;20030;-83
2021/04/20 02:06:03;;;;;;;15.02;7.60;;;;;;;5.20;68.34;101525.28;4992594;28;20030;-83
2021/04/20 02:08:29;;;;;;;18.17;7.80;;;;;;;5.15;68.48;101523.84;4994393;28;20038;-83
2021/04/20 02:10:56;;;;;;;16.42;7.57;;;;;;;5.12;67.92;101530.19;4994018;28;20083;-83
2021/04/20 02:13:22;;;;;;;12.63;7.00;;;;;;;5.14;68.87;101525.63;4993848;28;20030;-82
2021/04/20 02:15:48;;;;;;;11.40;7.88;;;;;;;5.12;68.58;101524.84;5000801;28;20399;-83
2021/04/20 02:18:13;;;;;;;13.07;7.07;;;;;;;5.05;69.54;101531.44;4996340;28;20556;-83
2021/04/20 02:20:40;;;;;;;15.70;9.35;;;;;;;5.09;70.29;101525.03;4998017;28;20039;-83
2021/04/20 02:23:06;;;;;;;15.70;7.78;;;;;;;5.12;69.17;101524.00;4996715;28;20030;-83
2021/04/20 02:25:33;;;;;;;13.30;7.13;;;;;;;5.04;69.53;101524.41;4996318;28;20026;-83
2021/04/20 02:27:58;;;;;;;12.50;7.55;;;;;;;5.04;69.47;101524.41;4996778;28;20052;-82
2021/04/20 02:30:25;;;;;;;10.82;7.57;;;;;;;5.00;69.27;101522.84;4996302;28;20030;-82
2021/04/20 02:32:51;;;;;;;13.98;8.07;;;;;;;4.98;69.17;101524.72;4996071;28;20434;-82
2021/04/20 02:35:19;;;;;;;16.30;7.75;;;;;;;4.94;69.67;101521.34;4996166;28;20030;-83
2021/04/20 02:37:45;;;;;;;19.05;8.02;;;;;;;4.94;70.86;101516.03;4993660;28;20073;-80
2021/04/20 02:40:18;;;;;;;14.85;8.18;;;;;;;4.89;70.96;101522.53;4995685;28;20053;-81
2021/04/20 02:42:43;;;;;;;10.30;7.32;;;;;;;4.88;70.40;101515.50;4994482;28;20031;-80
2021/04/20 02:45:10;;;;;;;16.83;9.48;;;;;;;4.91;71.43;101510.00;4993757;28;20034;-81
2021/04/20 02:47:36;;;;;;;13.73;8.93;;;;;;;4.85;70.44;101511.19;4996074;28;20041;-80
2021/04/20 02:50:06;;;;;;;13.55;8.23;;;;;;;4.83;70.35;101518.38;4997085;28;20030;-81
2021/04/20 02:52:32;;;;;;;12.50;7.57;;;;;;;4.79;69.47;101511.50;4995221;28;20180;-81
2021/04/20 02:54:57;;;;;;;15.63;8.05;;;;;;;4.68;69.41;101516.50;4996415;28;20085;-81
2021/04/20 02:57:24;;;;;;;13.68;7.45;;;;;;;4.63;70.23;101507.91;4996390;28;20177;-81
2021/04/20 02:59:50;;;;;;;13.00;7.97;;;;;;;4.58;70.82;101508.13;4996984;28;20042;-81
2021/04/20 03:02:17;;;;;;;12.27;8.00;;;;;;;4.59;69.82;101513.41;4994218;28;20026;-81
2021/04/20 03:04:42;;;;;;;14.00;8.07;;;;;;;4.55;70.04;101506.47;4996348;28;20096;-81
2021/04/20 03:07:12;;;;;;;16.88;7.78;;;;;;;4.61;71.40;101507.97;4992552;28;20034;-81
2021/04/20 03:09:37;;;;;;;18.60;8.55;;;;;;;4.54;70.11;101502.09;4992181;28;20407;-81
2021/04/20 03:12:02;;;;;;;14.32;9.68;;;;;;;4.60;73.60;101501.78;4994281;28;20030;-81
2021/04/20 03:14:29;;;;;;;10.45;8.55;;;;;;;4.63;71.67;101506.09;4994744;28;20030;-81
2021/04/20 03:16:55;;;;;;;10.38;7.63;;;;;;;4.62;70.77;101504.34;4993763;28;20117;-82
2021/04/20 03:19:21;;;;;;;13.45;8.30;;;;;;;4.57;71.21;101503.75;4992871;28;20489;-83
2021/04/20 03:21:47;;;;;;;13.02;8.40;;;;;;;4.47;71.82;101503.38;4998381;28;20030;-83
2021/04/20 03:24:47;;;;;;;16.38;8.45;;;;;;;4.45;72.38;101497.25;4995073;28;20034;-82
2021/04/20 03:27:12;;;;;;;13.57;8.35;;;;;;;4.47;72.27;101500.69;4988573;28;20039;-82
2021/04/20 03:29:38;;;;;;;13.48;8.52;;;;;;;4.45;71.21;101493.72;4994512;28;20022;-82
2021/04/20 03:32:04;;;;;;;11.40;8.40;;;;;;;4.43;71.03;101495.59;4992172;28;20030;-82
2021/04/20 03:34:39;;;;;;;11.15;8.18;;;;;;;4.37;71.85;101494.09;4992217;28;20501;-82
2021/04/20 03:37:09;;;;;;;12.00;7.93;;;;;;;4.29;72.98;101491.84;4990871;28;20030;-82
2021/04/20 03:39:43;;;;;;;17.70;9.77;;;;;;;4.29;72.46;101486.50;4992472;28;20375;-82
2021/04/20 03:42:21;;;;;;;13.80;8.18;;;;;;;4.25;72.48;101484.91;4993894;28;20030;-83
2021/04/20 03:44:51;;;;;;;16.98;9.45;;;;;;;4.23;72.76;101486.81;4996904;28;20026;-84
2021/04/20 03:47:38;;;;;;;13.85;9.30;;;;;;;4.24;73.72;101472.56;4995728;28;20101;-84
2021/04/20 03:50:09;;;;;;;15.75;8.70;;;;;;;4.28;73.60;101475.91;4995934;28;20546;-84
2021/04/20 03:52:47;;;;;;;17.13;10.23;;;;;;;4.25;73.26;101476.06;4989851;28;20044;-83
2021/04/20 03:55:15;;;;;;;17.17;9.75;;;;;;;4.21;72.69;101466.53;4990898;28;20041;-83
2021/04/20 03:57:45;;;;;;;16.95;10.23;;;;;;;4.18;73.21;101475.53;4990897;28;20022;-83
2021/04/20 04:00:16;;;;;;;12.50;8.50;;;;;;;4.14;73.29;101472.16;4999465;28;20037;-83
2021/04/20 04:15:44;;;;;;;14.30;9.38;;;;;;;4.06;72.21;101479.66;4134755;22;20433;-83
2021/04/20 04:18:17;;;;;;;12.00;8.25;;;;;;;4.06;71.96;101479.66;5003915;28;20038;-83
2021/04/20 04:23:23;;;;;;;16.95;8.68;;;;;;;4.09;71.10;101476.00;5094064;22;20260;-84
2021/04/20 04:26:04;;;;;;;17.60;8.73;;;;;;;4.13;71.89;101474.88;5030375;28;20120;-83
2021/04/20 04:28:41;;;;;;;13.35;8.65;;;;;;;4.15;71.87;101476.53;4997284;28;20073;-84
2021/04/20 04:31:08;;;;;;;13.88;8.73;;;;;;;4.14;71.39;101474.81;5001417;28;20034;-84
2021/04/20 04:34:01;;;;;;;14.38;8.57;;;;;;;4.19;71.21;101479.03;5017494;28;20029;-83
2021/04/20 04:39:28;;;;;;;14.00;8.55;;;;;;;4.24;70.42;101463.72;4743151;22;20819;-84
2021/04/20 04:42:09;;;;;;;16.42;9.25;;;;;;;4.22;71.61;101466.44;4890353;22;20455;-83
2021/04/20 04:44:38;;;;;;;11.00;8.20;;;;;;;4.26;70.80;101470.69;5022494;28;20025;-84
2021/04/20 04:49:56;;;;;;;16.27;8.90;;;;;;;4.36;71.19;101465.75;5014179;23;20057;-83
2021/04/20 04:53:21;;;;;;;17.60;9.55;;;;;;;4.38;72.27;101480.72;4760727;22;20096;-84
2021/04/20 05:01:03;;;;;;;14.63;9.18;;;;;;;4.60;72.50;101472.50;5438831;22;20553;-85
2021/04/20 05:13:47;;;;;;;30.42;10.45;;;;;;;4.95;72.48;101468.91;4993205;28;20060;-83
2021/04/20 05:16:18;;;;;;;19.83;11.00;;;;;;;5.05;71.67;101468.34;4998085;28;20034;-83
2021/04/20 05:24:00;;;;;;;17.10;10.32;;;;;;;5.22;71.27;101471.91;3575368;22;20053;-84
2021/04/20 05:26:35;;;;;;;18.63;9.45;;;;;;;5.29;71.34;101467.94;5015292;28;20402;-84
2021/04/20 05:31:51;;;;;;;15.50;9.73;;;;;;;5.40;71.12;101467.38;5025619;22;20544;-84
2021/04/20 05:34:26;;;;;;;18.92;10.35;;;;;;;5.45;70.58;101462.66;5064123;23;20075;-85
2021/04/20 05:49:38;;;;;;;18.13;8.85;;;;;;;5.90;69.09;101458.31;5173764;22;20526;-85
2021/04/20 05:57:13;;;;;;;16.90;8.90;;;;;;;6.13;70.53;101460.56;5039547;22;9306524;-85
2021/04/20 05:59:45;;;;;;;18.23;9.30;;;;;;;6.17;69.71;101453.22;5030730;22;20038;-85
2021/04/20 06:02:15;;;;;;;12.50;8.02;;;;;;;6.24;68.91;101451.88;5165367;22;20004;-85
2021/04/20 06:05:02;;;;;;;15.35;9.57;;;;;;;6.30;69.66;101456.00;5426983;22;20068;-86
2021/04/20 06:15:10;;;;;;;18.52;7.68;;;;;;;6.65;63.84;101462.78;5027285;28;20080;-85
2021/04/20 06:17:39;;;;;;;11.45;7.30;;;;;;;6.79;62.76;101456.59;5055029;23;20048;-84
2021/04/20 06:20:13;;;;;;;11.15;7.13;;;;;;;6.94;61.43;101457.47;5123446;22;20153;-84
2021/04/20 06:22:44;;;;;;;17.60;8.25;;;;;;;7.05;60.51;101454.16;5346157;22;21319;-84
2021/04/20 06:25:34;;;;;;;11.35;6.80;;;;;;;7.13;61.23;101459.84;5117678;22;20049;-84
2021/04/20 06:28:01;;;;;;;12.05;7.03;;;;;;;7.20;60.36;101453.19;5069834;22;20053;-85
2021/04/20 06:30:39;;;;;;;17.08;6.72;;;;;;;7.26;60.51;101460.81;5103532;22;20053;-85
2021/04/20 06:35:46;;;;;;;10.85;6.43;;;;;;;7.44;59.68;101463.25;5094019;22;20028;-85
2021/04/20 06:38:22;;;;;;;15.82;6.70;;;;;;;7.54;58.97;101459.06;5199673;22;20449;-85
2021/04/20 06:43:30;;;;;;;14.00;6.45;;;;;;;7.67;57.74;101453.78;4888373;22;20058;-84
2021/04/20 06:46:07;;;;;;;13.05;6.25;;;;;;;7.80;57.06;101450.19;5028169;23;20041;-84
2021/04/20 06:48:52;;;;;;;9.15;5.65;;;;;;;7.91;56.58;101449.50;4988764;28;20035;-84
2021/04/20 06:54:05;;;;;;;6.82;4.90;;;;;;;8.18;52.40;101443.25;5050771;22;20060;-84
2021/04/20 06:56:46;;;;;;;11.85;5.03;;;;;;;8.31;51.85;101445.97;5007174;28;20407;-84
2021/04/20 07:10:10;;;;;;;6.90;4.43;;;;;;;8.94;50.27;101445.22;5046390;22;20470;-84
2021/04/20 07:12:39;;;;;;;8.70;4.18;;;;;;;8.99;49.61;101448.41;4981100;22;20114;-84
2021/04/20 07:15:07;;;;;;;10.55;4.75;;;;;;;9.07;48.87;101439.84;5094023;22;20164;-84
2021/04/20 07:17:36;;;;;;;10.13;4.55;;;;;;;9.09;49.48;101441.44;5246749;22;20382;-84
2021/04/20 07:20:33;;;;;;;11.70;5.50;;;;;;;9.11;48.35;101436.81;5013361;28;20044;-84
2021/04/20 07:26:00;;;;;;;8.52;4.60;;;;;;;9.31;47.93;101442.59;4701607;22;20053;-84
2021/04/20 07:38:48;;;;;;;6.30;4.20;;;;;;;9.51;46.56;101425.03;4775130;22;20057;-84
2021/04/20 07:49:37;;;;;;;12.20;7.47;;;;;;;9.64;54.13;101424.03;5045917;22;20058;-85
2021/04/20 07:54:57;;;;;;;11.98;5.88;;;;;;;9.78;49.86;101423.00;5010373;28;20060;-85
2021/04/20 08:08:41;;;;;;;11.75;6.25;;;;;;;10.06;48.90;101413.72;5433326;22;20078;-84
2021/04/20 08:21:17;;;;;;;8.50;5.80;;;;;;;10.57;44.83;101416.13;5353541;22;20023;-84
2021/04/20 08:39:46;;;;;;;7.57;4.43;;;;;;;11.17;43.22;101414.09;4751962;22;20088;-84
2021/04/20 08:42:28;;;;;;;11.65;4.38;;;;;;;11.23;43.30;101418.09;5023614;28;20026;-84
2021/04/20 08:45:26;;;;;;;12.73;4.38;;;;;;;11.28;42.53;101414.06;4997684;22;20132;-84
2021/04/20 08:47:54;;;;;;;9.18;4.10;;;;;;;11.37;42.64;101408.94;5229243;22;20059;-84
2021/04/20 09:06:10;;;;;;;9.25;4.38;;;;;;;11.96;40.23;101406.69;3556022;22;20863;-84
2021/04/20 09:08:50;;;;;;;7.25;3.60;;;;;;;12.00;40.47;101398.34;5009536;28;20141;-85
2021/04/20 09:11:26;;;;;;;5.43;3.63;;;;;;;11.97;39.81;101402.19;4998962;28;20386;-84
2021/04/20 09:13:59;;;;;;;8.52;5.20;;;;;;;11.87;39.11;101404.78;5005697;28;20038;-84
2021/04/20 09:16:43;;;;;;;12.10;4.80;;;;;;;11.85;41.28;101406.75;4996922;28;20033;-85
2021/04/20 09:40:27;;;;;;;7.85;3.53;;;;;;;12.45;38.71;101403.53;5413110;22;20164;-84
2021/04/20 09:43:06;;;;;;;6.85;3.63;;;;;;;12.39;37.46;101408.47;5658170;22;20063;-85
2021/04/20 09:45:43;;;;;;;6.18;3.60;;;;;;;12.43;38.07;101403.69;4992969;22;20049;-84
2021/04/20 10:08:56;;;;;;;10.18;4.38;;;;;;;12.77;35.94;101400.75;5136997;22;20056;-85
2021/04/20 10:26:56;;;;;;;5.90;2.92;;;;;;;13.09;32.87;101390.66;5081303;22;20053;-85
2021/04/20 10:29:48;;;;;;;8.30;3.22;;;;;;;13.17;33.54;101398.09;5139683;22;20306;-84
2021/04/20 10:32:29;;;;;;;9.07;3.67;;;;;;;13.32;33.32;101388.66;5028069;22;20115;-85
2021/04/20 10:34:57;;;;;;;7.30;3.80;;;;;;;13.43;32.90;101389.53;4984568;28;20402;-85
2021/04/20 10:37:34;;;;;;;8.25;3.70;;;;;;;13.48;32.43;101387.28;5457842;22;20730;-84
2021/04/20 10:40:08;;;;;;;12.05;3.92;;;;;;;13.39;32.68;101383.56;5040581;22;20286;-85
2021/04/20 10:47:41;;;;;;;19.02;4.97;;;;;;;13.56;37.20;101374.78;5329173;22;20376;-85
2021/04/20 10:50:16;;;;;;;8.52;3.85;;;;;;;13.63;35.10;101377.78;5018335;23;20476;-85
2021/04/20 11:05:23;;;;;;;6.43;4.10;;;;;;;14.11;35.98;101365.25;4612427;22;20164;-85
2021/04/20 11:15:35;;;;;;;9.48;4.25;;;;;;;14.53;35.81;101354.97;4998778;22;20142;-85
2021/04/20 11:43:47;;;;;;;7.28;3.30;;;;;;;14.96;32.68;101326.44;5046796;23;20066;-85
2021/04/20 14:38:05;;;;;;;7.05;3.38;;;;;;;32.57;12.32;101196.69;6048327;22;20339;-91
2021/04/20 14:43:07;;;;;;;7.07;4.00;;;;;;;34.44;11.45;101195.47;5863947;22;20053;-84
2021/04/20 14:45:37;;;;;;;6.82;3.13;;;;;;;35.76;10.96;101193.84;5027974;28;20061;-84
2021/04/20 14:48:09;;;;;;;4.88;3.20;;;;;;;35.47;10.53;101190.16;5004804;28;20117;-84
2021/04/20 14:50:37;;;;;;;9.93;3.10;;;;;;;36.46;10.42;101181.34;4993025;28;20033;-84
2021/04/20 15:13:55;;;;;;;8.18;3.42;;;;;;;37.94;9.99;101173.56;4994421;22;20072;-84
2021/04/20 15:51:41;;;;;;;6.15;3.55;;;;;;;30.61;14.95;101125.81;5103442;27;20416;-75
2021/04/20 16:04:56;;;;;;;10.90;4.80;;;;;;;27.07;17.58;101115.63;5088860;27;20401;-75
2021/04/20 16:07:26;;;;;;;6.18;4.40;;;;;;;31.78;12.48;101116.91;5099007;28;20505;-75
2021/04/20 16:09:54;;;;;;;5.60;3.90;;;;;;;33.26;11.87;101120.25;5094113;28;20035;-76
2021/04/20 16:12:28;;;;;;;8.25;4.20;;;;;;;35.53;10.65;101125.47;5092006;28;20032;-76
2021/04/20 16:14:58;;;;;;;8.43;4.57;;;;;;;35.81;9.46;101123.81;5083244;28;20121;-77
2021/04/20 16:17:26;;;;;;;7.97;4.22;;;;;;;35.24;11.01;101124.63;5072653;28;20020;-76
2021/04/20 16:20:03;;;;;;;6.85;4.30;;;;;;;33.78;11.36;101124.69;5096094;28;20044;-77
2021/04/20 16:22:31;;;;;;;14.05;5.40;;;;;;;35.39;9.94;101121.72;5096751;28;20031;-76
2021/04/20 16:24:57;;;;;;;8.70;4.88;;;;;;;34.92;10.30;101117.56;5085899;28;20029;-76
2021/04/20 16:27:26;;;;;;;7.95;4.70;;;;;;;36.15;9.56;101116.47;5099949;28;20487;-75
2021/04/20 16:29:58;;;;;;;11.65;3.92;;;;;;;36.20;9.22;101111.66;5086822;28;20032;-76
2021/04/20 16:32:26;;;;;;;9.43;4.57;;;;;;;35.68;10.65;101114.16;5091688;28;20047;-76
2021/04/20 16:34:52;;;;;;;10.23;4.75;;;;;;;35.19;9.79;101115.13;5101685;28;20036;-76
2021/04/20 16:37:31;;;;;;;9.68;4.68;;;;;;;34.12;11.12;101107.34;5089023;28;20091;-76
2021/04/20 16:40:14;;;;;;;8.98;4.78;;;;;;;33.72;11.19;101109.09;5095528;28;20032;-75
2021/04/20 16:42:52;;;;;;;10.02;4.90;;;;;;;33.08;11.78;101110.47;5082333;28;20123;-75
2021/04/20 16:45:47;;;;;;;9.32;4.43;;;;;;;32.17;13.02;101105.44;5072695;28;20027;-76
2021/04/20 16:48:42;;;;;;;7.50;4.47;;;;;;;32.62;11.59;101106.75;5074494;28;20613;-76
2021/04/20 16:51:32;;;;;;;10.80;4.53;;;;;;;32.37;11.73;101107.47;5101323;28;20074;-76
2021/04/20 16:54:20;;;;;;;8.70;4.68;;;;;;;32.57;11.88;101106.72;5084391;28;20024;-76
2021/04/20 16:57:10;;;;;;;10.18;5.63;;;;;;;32.40;11.88;101096.63;5101287;28;20063;-76
2021/04/20 17:00:08;;;;;;;8.68;4.93;;;;;;;32.53;12.06;101097.25;5078056;28;20077;-75
2021/04/20 17:03:04;;;;;;;9.80;4.43;;;;;;;32.21;13.03;101096.28;5089771;28;20032;-76
2021/04/20 17:05:45;;;;;;;11.85;5.30;;;;;;;32.54;11.61;101093.34;5080517;28;20040;-75
2021/04/20 17:08:16;;;;;;;9.30;4.80;;;;;;;31.62;11.91;101102.06;5095806;28;20032;-76
2021/04/20 17:10:54;;;;;;;8.20;5.22;;;;;;;29.65;13.68;101101.16;5069621;28;20043;-76
2021/04/20 17:13:21;;;;;;;8.45;4.72;;;;;;;29.35;14.21;101095.94;5055017;28;20039;-76
2021/04/20 17:16:05;;;;;;;10.45;3.63;;;;;;;28.01;15.80;101096.38;5085333;28;20066;-77
2021/04/20 17:18:33;;;;;;;10.68;3.17;;;;;;;24.97;17.40;101098.97;5066825;28;20032;-76
2021/04/20 17:21:25;;;;;;;13.70;3.15;;;;;;;22.40;19.23;101090.81;5055824;28;20024;-75
2021/04/20 17:24:15;;;;;;;9.00;3.40;;;;;;;21.03;21.46;101094.94;5081606;28;20047;-75
2021/04/20 17:27:02;;;;;;;9.10;3.25;;;;;;;20.05;22.61;101093.56;5086507;28;20030;-76
2021/04/20 17:29:38;;;;;;;10.85;3.25;;;;;;;19.43;22.90;101089.25;5043622;28;20050;-74
2021/04/20 17:32:39;;;;;;;10.50;2.90;;;;;;;18.64;23.87;101090.53;5079979;28;20034;-75
2021/04/20 17:35:13;;;;;;;7.97;3.35;;;;;;;18.53;26.10;101089.06;5086971;28;20036;-75
2021/04/20 17:38:04;;;;;;;7.78;3.47;;;;;;;18.09;24.99;101093.22;5077683;28;20465;-75
2021/04/20 17:41:12;;;;;;;14.40;3.38;;;;;;;17.82;27.02;101080.03;5075456;28;20037;-74
2021/04/20 17:44:15;;;;;;;8.15;3.40;;;;;;;17.44;26.81;101094.19;5064761;28;20447;-75
2021/04/20 17:47:01;;;;;;;12.23;4.20;;;;;;;17.23;26.94;101099.28;5055806;28;20132;-75
2021/04/20 17:49:39;;;;;;;10.38;4.30;;;;;;;16.95;28.05;101102.34;5061157;28;20040;-75
2021/04/20 17:52:34;;;;;;;11.98;3.63;;;;;;;16.71;29.10;101102.28;5079495;28;20090;-75
2021/04/20 17:55:34;;;;;;;8.52;4.90;;;;;;;16.44;28.89;101098.84;5071520;28;20052;-75
2021/04/20 17:58:15;;;;;;;14.70;4.65;;;;;;;16.23;29.96;101103.88;5061568;28;20426;-75
2021/04/20 18:01:02;;;;;;;10.48;4.28;;;;;;;16.04;30.43;101105.81;5085618;28;20039;-75
2021/04/20 18:03:44;;;;;;;13.95;4.68;;;;;;;15.81;30.59;101108.22;5060669;28;20363;-75
2021/04/20 18:06:13;;;;;;;15.18;4.00;;;;;;;15.52;31.04;101105.84;5077119;28;20036;-75
2021/04/20 18:09:06;;;;;;;9.40;4.07;;;;;;;15.34;30.81;101105.03;5085279;28;20111;-75
2021/04/20 18:11:44;;;;;;;13.52;4.18;;;;;;;15.13;30.36;101110.78;5043888;28;20020;-74
2021/04/20 18:14:22;;;;;;;8.80;4.38;;;;;;;15.00;30.49;101111.19;5066697;28;20037;-74
2021/04/20 18:16:50;;;;;;;11.32;4.78;;;;;;;14.79;31.08;101113.34;5063998;28;20108;-74
2021/04/20 18:19:22;;;;;;;12.43;4.22;;;;;;;14.57;31.72;101115.50;5070391;22;20045;-74
2021/04/20 18:22:21;;;;;;;8.25;3.90;;;;;;;14.45;31.24;101111.28;5044312;28;20029;-74
2021/04/20 18:24:51;;;;;;;11.20;3.55;;;;;;;14.25;32.53;101121.34;5012834;28;20076;-74
2021/04/20 18:27:44;;;;;;;6.72;4.50;;;;;;;13.99;32.68;101116.63;5010240;28;20095;-74
2021/04/20 18:30:37;;;;;;;12.70;5.03;;;;;;;13.86;32.92;101110.69;5027853;28;20037;-74
2021/04/20 18:33:12;;;;;;;13.55;4.45;;;;;;;13.73;33.46;101120.97;5015690;28;20094;-74
2021/04/20 18:36:05;;;;;;;6.57;4.20;;;;;;;13.63;33.24;101115.63;5025717;28;20091;-74
2021/04/20 18:38:42;;;;;;;12.63;4.45;;;;;;;13.54;33.84;101124.59;5026834;28;20384;-74
2021/04/20 18:41:55;;;;;;;8.15;4.10;;;;;;;13.41;34.79;101126.75;5030122;28;20029;-74
2021/04/20 18:44:43;;;;;;;7.22;4.20;;;;;;;13.21;35.64;101124.03;5004958;28;20049;-74
2021/04/20 18:47:25;;;;;;;13.02;4.78;;;;;;;13.14;35.13;101120.22;5028287;28;20323;-75
2021/04/20 18:50:29;;;;;;;17.33;6.68;;;;;;;13.03;36.12;101129.28;5020951;28;20033;-74
2021/04/20 18:53:20;;;;;;;11.68;6.38;;;;;;;12.95;36.24;101125.59;5028656;28;20028;-74
2021/04/20 18:56:05;;;;;;;16.67;5.93;;;;;;;12.79;36.38;101128.84;5012337;28;20045;-75
2021/04/20 18:58:54;;;;;;;12.93;5.80;;;;;;;12.68;36.96;101115.50;5027125;28;20025;-75
2021/04/20 19:01:49;;;;;;;11.15;5.68;;;;;;;12.48;37.48;101120.00;5018007;28;20048;-75
2021/04/20 19:04:27;;;;;;;12.40;6.28;;;;;;;12.39;38.51;101130.63;5020100;28;20342;-74
2021/04/20 19:07:13;;;;;;;8.10;5.25;;;;;;;12.24;38.36;101121.22;5028032;28;20462;-75
2021/04/20 19:10:15;;;;;;;9.73;5.30;;;;;;;12.13;37.84;101119.50;5017187;28;20025;-75
2021/04/20 19:13:08;;;;;;;16.35;5.22;;;;;;;12.07;38.90;101128.13;5015542;28;20380;-74
2021/04/20 19:16:06;;;;;;;9.40;5.07;;;;;;;12.04;39.19;101131.09;5018747;28;20028;-75
2021/04/20 19:18:46;;;;;;;14.07;4.80;;;;;;;11.91;39.55;101128.63;5031288;28;20037;-75
2021/04/20 19:21:33;;;;;;;14.73;5.57;;;;;;;11.79;39.89;101132.38;5015607;28;20025;-75
2021/04/20 19:24:19;;;;;;;11.13;5.90;;;;;;;11.61;40.19;101140.22;5032038;28;20029;-75
2021/04/20 19:27:12;;;;;;;9.10;5.32;;;;;;;11.62;40.39;101138.38;5014908;28;20464;-75
2021/04/20 19:29:38;;;;;;;12.93;5.57;;;;;;;11.55;40.39;101138.06;5018225;28;20114;-75
2021/04/20 19:32:12;;;;;;;12.48;5.32;;;;;;;11.43;42.99;101137.25;5031231;28;20071;-75
2021/04/20 19:35:06;;;;;;;18.35;6.47;;;;;;;11.25;42.87;101136.13;5013769;28;20033;-74
2021/04/20 19:38:03;;;;;;;19.80;6.10;;;;;;;11.18;42.80;101130.44;5016698;28;20037;-74
2021/04/20 19:40:44;;;;;;;13.93;6.22;;;;;;;11.17;42.97;101134.13;5029393;28;20492;-75
2021/04/20 19:43:32;;;;;;;9.23;5.20;;;;;;;11.04;44.56;101138.81;5012658;28;20095;-75
2021/04/20 19:46:02;;;;;;;16.42;6.40;;;;;;;10.98;42.83;101136.63;4992622;28;20545;-75
2021/04/20 19:48:47;;;;;;;12.52;5.88;;;;;;;10.97;43.15;101140.31;5024684;28;20036;-75
2021/04/20 19:51:24;;;;;;;13.32;6.32;;;;;;;10.91;43.97;101138.97;5013280;28;20029;-75
2021/04/20 19:53:56;;;;;;;10.35;6.07;;;;;;;10.82;43.15;101129.00;5031042;28;20035;-75
2021/04/20 19:56:25;;;;;;;15.50;5.85;;;;;;;10.73;43.76;101127.06;5017332;28;20039;-75
2021/04/20 19:58:58;;;;;;;7.88;5.00;;;;;;;10.64;44.62;101128.69;5013247;28;20025;-74
2021/04/20 20:01:35;;;;;;;11.48;6.72;;;;;;;10.47;45.64;101126.53;5009519;28;20033;-74
2021/04/20 20:04:04;;;;;;;13.98;6.82;;;;;;;10.36;45.66;101124.72;5020894;28;20361;-74
2021/04/20 20:06:32;;;;;;;9.05;5.78;;;;;;;10.19;44.24;101122.50;5014627;28;20120;-74
2021/04/20 20:09:02;;;;;;;13.18;5.13;;;;;;;10.10;45.93;101124.97;5011928;28;20068;-74
2021/04/20 20:11:50;;;;;;;12.23;6.47;;;;;;;10.02;45.95;101123.88;5030644;28;20067;-74
2021/04/20 20:14:16;;;;;;;24.67;6.82;;;;;;;10.01;46.88;101125.69;5016315;28;20087;-74
2021/04/20 20:16:43;;;;;;;12.98;5.88;;;;;;;9.91;45.83;101122.03;5026479;28;20037;-75
2021/04/20 20:19:14;;;;;;;6.90;5.78;;;;;;;9.80;46.83;101114.84;5009153;28;20069;-74
2021/04/20 20:21:45;;;;;;;20.95;6.30;;;;;;;9.75;47.07;101118.84;5016238;28;20630;-74
2021/04/20 20:24:12;;;;;;;13.13;6.93;;;;;;;9.72;47.30;101122.63;5034313;28;20041;-75
2021/04/20 20:26:41;;;;;;;13.77;6.10;;;;;;;9.61;48.45;101119.91;5025830;28;20033;-75
2021/04/20 20:29:11;;;;;;;12.77;6.68;;;;;;;9.51;49.00;101117.09;5009662;28;20029;-74
2021/04/20 20:31:46;;;;;;;15.10;7.22;;;;;;;9.53;47.87;101115.16;5009391;28;20033;-75
2021/04/20 20:34:14;;;;;;;8.55;6.30;;;;;;;9.43;49.19;101124.94;5022119;28;20033;-75